METAR Data
IDs: Format: Raw Decoded Include TAF

Data at: 2107 UTC 24 Mar 2019

KFST 242053Z AUTO 26006KT 10SM CLR 27/M03 A3003 RMK AO2 SLP132 T02721028 58023
KFST 241953Z AUTO 30006G19KT 10SM CLR 27/M03 A3006 RMK AO2 SLP142 T02721033
KFST 241853Z AUTO 35007KT 10SM CLR 27/M03 A3009 RMK AO2 SLP149 T02671028
KFST 241753Z AUTO 34012G15KT 10SM CLR 26/M03 A3010 RMK AO2 SLP155 T02561028 10256 20072 58001 $
KFST 241653Z AUTO 30009KT 10SM CLR 24/M03 A3012 RMK AO2 SLP161 T02441028 $
KFST 241553Z AUTO 25007KT 10SM CLR 23/M04 A3012 RMK AO2 SLP161 T02331039 $
KFST 241453Z AUTO 21009KT 10SM CLR 19/M04 A3011 RMK AO2 SLP160 T01941039 53020 $
KFST 241353Z AUTO 19009KT 10SM CLR 14/M03 A3008 RMK AO2 SLP153 T01391033 $
KFST 241253Z AUTO 18009KT 10SM 08/M02 A3006 RMK AO2 SLP147 T00831022 $
KFST 241153Z AUTO 17010KT 10SM CLR 07/02 A3004 RMK AO2 SLP142 T00720022 10144 20072 53002
KFST 241053Z AUTO 21008KT 10SM CLR 11/M04 A3003 RMK AO2 SLP133 T01111039
KFST 240953Z AUTO 18009KT 10SM CLR 11/03 A3003 RMK AO2 SLP134 T01110033
KFST 240853Z AUTO 19006KT 10SM CLR 09/04 A3004 RMK AO2 SLP137 T00940044 58001
KFST 240753Z AUTO 19006KT 10SM CLR 12/07 A3004 RMK AO2 SLP138 T01170072
KFST 240653Z AUTO 16010KT 10SM CLR 14/08 A3004 RMK AO2 SLP134 T01440078
KFST 240553Z AUTO 16010KT 10SM CLR 14/03 A3004 RMK AO2 SLP138 T01390033 10244 20133 402560094 50005
KFST 240453Z AUTO 16008KT 10SM CLR 14/M02 A3004 RMK AO2 SLP138 T01441022
KFST 240353Z AUTO 15004KT 10SM CLR 16/M03 A3004 RMK AO2 SLP138 T01611028
KFST 240253Z AUTO 17005KT 10SM CLR 16/M03 A3002 RMK AO2 SLP135 T01561028 53014
KFST 240153Z AUTO 18003KT 10SM CLR 18/M02 A3000 RMK AO2 SLP126 T01781022
KFST 240053Z AUTO 00000KT 10SM CLR 23/M04 A2998 RMK AO2 SLP116 T02281044
KFST 232353Z AUTO VRB03KT 10SM CLR 24/M06 A2998 RMK AO2 SLP117 T02391061 10256 20211 56008
KFST 232253Z AUTO 30010KT 10SM CLR 24/M05 A2998 RMK AO2 SLP116 T02441050
KFST 232153Z AUTO 27008KT 210V310 10SM CLR 25/M05 A2999 RMK AO2 SLP120 T02501050
KFST 232053Z AUTO VRB03KT 10SM CLR 24/M04 A3001 RMK AO2 SLP125 T02441044 56022
KFST 231953Z AUTO 30009G17KT 10SM CLR 24/M04 A3003 RMK AO2 SLP131 T02391044
KFST 231853Z AUTO 29007G20KT 10SM CLR 23/M06 A3005 RMK AO2 SLP141 T02281056
KFST 231753Z AUTO 26003KT 10SM CLR 21/M07 A3008 RMK AO2 SLP150 T02111067 10222 20094 58005
KFST 231653Z AUTO 28009KT 10SM CLR 21/M07 A3010 RMK AO2 SLP158 T02061067
KFST 231553Z AUTO 30008KT 10SM CLR 18/M04 A3010 RMK AO2 SLP158 T01831039
KFST 231453Z AUTO 28009KT 10SM CLR 17/M03 A3009 RMK AO2 SLP157 T01671028 53025
KFST 231353Z AUTO 26010KT 10SM CLR 13/M02 A3006 RMK AO2 SLP149 T01281017
KFST 231253Z AUTO 24012KT 10SM CLR 11/01 A3003 RMK AO2 SLP140 T01110011
KFST 231153Z AUTO 22011KT 10SM CLR 11/01 A3001 RMK AO2 SLP131 T01060006 10144 20106 53004
KFST 231053Z AUTO 25010KT 10SM CLR 12/M01 A3000 RMK AO2 SLP125 T01171006
KFST 230953Z AUTO 22009KT 10SM CLR 11/03 A2999 RMK AO2 SLP123 T01110033